createdAt,value
2017-09-17T00:02:09.415Z,7.17
2017-09-17T00:04:38.408Z,7.70
2017-09-17T00:07:07.385Z,7.60
2017-09-17T00:09:36.393Z,8.00
2017-09-17T00:12:06.238Z,7.20
2017-09-17T00:14:35.626Z,7.30
2017-09-17T00:17:04.538Z,6.70
2017-09-17T00:19:33.615Z,6.93
2017-09-17T00:22:03.329Z,6.20
2017-09-17T00:24:32.657Z,7.13
2017-09-17T00:27:02.405Z,7.63
2017-09-17T00:29:31.368Z,6.67
2017-09-17T00:32:00.300Z,7.30
2017-09-17T00:34:30.049Z,7.30
2017-09-17T00:36:59.380Z,7.80
2017-09-17T00:39:29.869Z,6.80
2017-09-17T00:41:59.571Z,6.60
2017-09-17T00:44:28.636Z,7.20
2017-09-17T00:46:57.588Z,6.50
2017-09-17T00:49:26.927Z,6.10
2017-09-17T00:51:56.705Z,6.30
2017-09-17T00:54:25.657Z,6.30
2017-09-17T00:56:55.396Z,7.00
2017-09-17T00:59:24.772Z,6.30
2017-09-17T01:01:54.497Z,6.80
2017-09-17T01:04:24.883Z,6.23
2017-09-17T01:06:54.243Z,6.17
2017-09-17T01:09:23.206Z,6.17
2017-09-17T01:11:52.588Z,7.17
2017-09-17T01:14:21.966Z,6.13
2017-09-17T01:16:51.325Z,6.23
2017-09-17T01:19:21.077Z,7.03
2017-09-17T01:21:50.803Z,6.10
2017-09-17T01:24:20.137Z,6.87
2017-09-17T01:26:49.115Z,6.73
2017-09-17T01:29:18.079Z,6.37
2017-09-17T01:31:47.414Z,6.93
2017-09-17T01:34:16.392Z,6.90
2017-09-17T01:36:45.480Z,5.77
2017-09-17T01:39:14.465Z,7.00
2017-09-17T01:41:44.193Z,6.93
2017-09-17T01:44:13.153Z,7.37
2017-09-17T01:46:42.896Z,6.67
2017-09-17T01:49:12.907Z,7.63
2017-09-17T01:51:41.870Z,6.40
2017-09-17T01:54:11.605Z,6.73
2017-09-17T01:56:40.570Z,6.77
2017-09-17T01:59:10.284Z,6.80
2017-09-17T02:01:40.025Z,7.30
2017-09-17T02:04:08.968Z,7.67
2017-09-17T02:06:38.116Z,6.30
2017-09-17T02:09:07.111Z,6.97
2017-09-17T02:11:36.570Z,6.87
2017-09-17T02:14:06.332Z,7.00
2017-09-17T02:16:35.664Z,6.60
2017-09-17T02:19:04.769Z,6.53
2017-09-17T02:21:33.812Z,6.77
2017-09-17T02:24:03.633Z,5.97
2017-09-17T02:26:34.645Z,7.07
2017-09-17T02:29:04.436Z,5.90
2017-09-17T02:31:33.365Z,5.90
2017-09-17T02:34:02.317Z,8.03
2017-09-17T02:36:31.308Z,6.83
2017-09-17T02:39:00.652Z,6.87
2017-09-17T02:41:29.600Z,5.47
2017-09-17T02:43:58.565Z,6.40
2017-09-17T02:46:27.563Z,7.30
2017-09-17T02:48:56.797Z,6.53
2017-09-17T02:51:25.769Z,7.10
2017-09-17T02:53:55.492Z,7.73
2017-09-17T02:56:24.867Z,6.40
2017-09-17T02:58:54.585Z,6.90
2017-09-17T03:01:23.819Z,7.13
2017-09-17T03:03:53.241Z,6.87
2017-09-17T03:06:22.183Z,6.20
2017-09-17T03:08:51.280Z,7.53
2017-09-17T03:11:20.236Z,7.60
2017-09-17T03:13:49.600Z,6.60
2017-09-17T03:16:18.545Z,7.30
2017-09-17T03:18:47.906Z,6.70
2017-09-17T03:21:16.945Z,7.30
2017-09-17T03:23:46.688Z,7.10
2017-09-17T03:26:15.768Z,6.33
2017-09-17T03:28:44.737Z,7.80
2017-09-17T03:31:13.724Z,7.37
2017-09-17T03:33:43.053Z,7.73
2017-09-17T03:36:12.043Z,7.93
2017-09-17T03:38:41.390Z,7.93
2017-09-17T03:41:10.370Z,6.87
2017-09-17T03:43:39.354Z,6.83
2017-09-17T03:46:08.342Z,7.07
2017-09-17T03:48:37.769Z,8.63
2017-09-17T03:51:06.731Z,6.80
2017-09-17T03:53:35.841Z,5.67
2017-09-17T03:56:05.625Z,6.60
2017-09-17T03:58:35.349Z,5.50
2017-09-17T04:01:04.303Z,7.30
2017-09-17T04:03:33.285Z,5.80
2017-09-17T04:06:02.273Z,5.83
2017-09-17T04:08:31.698Z,7.13
2017-09-17T04:11:03.663Z,5.73
2017-09-17T04:13:32.624Z,7.40
2017-09-17T04:16:01.640Z,6.03
2017-09-17T04:18:31.368Z,6.40
2017-09-17T04:21:01.151Z,5.80
2017-09-17T04:23:30.901Z,6.80
2017-09-17T04:26:00.429Z,6.80
2017-09-17T04:28:29.475Z,7.77
2017-09-17T04:30:58.510Z,6.47
2017-09-17T04:33:27.629Z,7.20
2017-09-17T04:35:56.769Z,6.50
2017-09-17T04:38:25.818Z,6.50
2017-09-17T04:40:54.769Z,6.00
2017-09-17T04:43:23.748Z,6.70
2017-09-17T04:45:52.758Z,6.20
2017-09-17T04:48:22.202Z,6.30
2017-09-17T04:50:51.140Z,6.17
2017-09-17T04:53:21.616Z,6.70
2017-09-17T04:55:50.648Z,5.33
2017-09-17T04:58:20.046Z,5.70
2017-09-17T05:00:48.999Z,5.63
2017-09-17T05:03:18.374Z,6.20
2017-09-17T05:05:47.363Z,6.00
2017-09-17T05:08:16.457Z,5.53
2017-09-17T05:10:45.539Z,6.97
2017-09-17T05:13:15.458Z,6.30
2017-09-17T05:15:44.848Z,6.90
2017-09-17T05:18:14.591Z,6.07
2017-09-17T05:20:43.597Z,6.30
2017-09-17T05:23:12.555Z,6.53
2017-09-17T05:25:41.541Z,6.70
2017-09-17T05:28:10.495Z,5.80
2017-09-17T05:30:39.671Z,6.00
2017-09-17T05:33:09.547Z,6.10
2017-09-17T05:35:38.576Z,6.00
2017-09-17T05:38:08.184Z,5.67
2017-09-17T05:40:37.271Z,5.50
2017-09-17T05:43:07.648Z,5.67
2017-09-17T05:45:36.601Z,5.30
2017-09-17T05:48:05.642Z,4.87
2017-09-17T05:50:34.646Z,4.83
2017-09-17T05:53:03.973Z,5.73
2017-09-17T05:55:32.960Z,6.07
2017-09-17T05:58:01.921Z,5.40
2017-09-17T06:00:30.929Z,6.20
2017-09-17T06:02:59.888Z,5.47
2017-09-17T06:05:28.879Z,5.80
2017-09-17T06:07:58.055Z,5.80
2017-09-17T06:10:27.163Z,5.93
2017-09-17T06:12:56.109Z,6.30
2017-09-17T06:15:25.117Z,5.90
2017-09-17T06:17:54.077Z,6.67
2017-09-17T06:20:23.060Z,7.10
2017-09-17T06:22:52.465Z,6.90
2017-09-17T06:25:21.496Z,6.20
2017-09-17T06:27:50.487Z,6.50
2017-09-17T06:30:19.521Z,7.00
2017-09-17T06:32:48.536Z,7.70
2017-09-17T06:35:17.702Z,7.07
2017-09-17T06:37:46.774Z,7.10
2017-09-17T06:40:15.744Z,6.60
2017-09-17T06:42:44.710Z,7.30
2017-09-17T06:45:13.733Z,7.20
2017-09-17T06:47:43.544Z,7.57
2017-09-17T06:50:12.742Z,7.83
2017-09-17T06:52:42.548Z,7.27
2017-09-17T06:55:11.518Z,7.17
2017-09-17T06:57:40.492Z,7.40
2017-09-17T07:00:09.513Z,8.00
2017-09-17T07:02:38.496Z,7.47
2017-09-17T07:05:07.447Z,7.60
2017-09-17T07:07:36.393Z,8.93
2017-09-17T07:10:05.771Z,9.50
2017-09-17T07:12:34.726Z,9.60
2017-09-17T07:15:03.726Z,9.13
2017-09-17T07:17:32.660Z,8.67
2017-09-17T07:20:02.515Z,10.10
2017-09-17T07:22:31.527Z,9.47
2017-09-17T07:25:00.481Z,10.00
2017-09-17T07:27:29.450Z,9.73
2017-09-17T07:29:58.840Z,10.40
2017-09-17T07:32:27.820Z,9.83
2017-09-17T07:34:57.042Z,10.60
2017-09-17T07:37:26.819Z,10.63
2017-09-17T07:39:55.810Z,10.23
2017-09-17T07:42:25.469Z,10.13
2017-09-17T07:44:54.915Z,12.50
2017-09-17T07:47:24.651Z,11.07
2017-09-17T07:49:53.617Z,14.30
2017-09-17T07:52:22.722Z,10.83
2017-09-17T07:54:51.681Z,12.23
2017-09-17T07:57:21.070Z,9.83
2017-09-17T07:59:50.054Z,13.17
2017-09-17T08:02:19.464Z,13.37
2017-09-17T08:04:48.443Z,13.10
2017-09-17T08:07:17.435Z,12.30
2017-09-17T08:09:46.417Z,14.83
2017-09-17T08:12:15.812Z,13.57
2017-09-17T08:14:45.630Z,12.67
2017-09-17T08:17:14.641Z,13.80
2017-09-17T08:19:43.773Z,13.17
2017-09-17T08:22:12.744Z,12.50
2017-09-17T08:24:41.721Z,14.40
2017-09-17T08:27:11.479Z,14.03
2017-09-17T08:29:40.440Z,13.40
2017-09-17T08:32:09.456Z,13.03
2017-09-17T08:34:38.425Z,12.20
2017-09-17T08:37:07.379Z,10.83
2017-09-17T08:39:36.773Z,11.60
2017-09-17T08:42:06.058Z,11.23
2017-09-17T08:44:35.847Z,10.67
2017-09-17T08:47:04.838Z,12.97
2017-09-17T08:49:33.825Z,11.17
2017-09-17T08:52:02.824Z,12.03
2017-09-17T08:54:31.809Z,11.83
2017-09-17T08:57:00.793Z,12.27
2017-09-17T08:59:29.782Z,12.00
2017-09-17T09:01:59.543Z,11.83
2017-09-17T09:04:29.280Z,11.63
2017-09-17T09:06:59.074Z,12.13
2017-09-17T09:09:28.796Z,9.93
2017-09-17T09:12:07.733Z,12.50
2017-09-17T09:14:37.158Z,10.67
2017-09-17T09:17:07.010Z,12.13
2017-09-17T09:19:37.219Z,11.37
2017-09-17T09:22:06.697Z,12.17
2017-09-17T09:24:36.453Z,10.60
2017-09-17T09:27:05.922Z,12.60
2017-09-17T09:29:35.276Z,11.27
2017-09-17T09:32:04.469Z,11.10
2017-09-17T09:34:33.448Z,10.90
2017-09-17T09:37:03.631Z,9.60
2017-09-17T09:39:32.589Z,8.47
2017-09-17T09:42:01.645Z,8.87
2017-09-17T09:44:30.711Z,10.37
2017-09-17T09:46:59.725Z,8.40
2017-09-17T09:49:29.885Z,8.57
2017-09-17T09:51:59.985Z,9.60
2017-09-17T09:54:28.960Z,9.13
2017-09-17T09:56:58.765Z,8.67
2017-09-17T09:59:28.549Z,8.97
2017-09-17T10:01:58.370Z,10.53
2017-09-17T10:04:28.183Z,11.53
2017-09-17T10:06:57.309Z,10.30
2017-09-17T10:09:27.071Z,9.33
2017-09-17T10:11:58.269Z,9.23
2017-09-17T10:14:27.295Z,8.07
2017-09-17T10:16:57.667Z,8.20
2017-09-17T10:19:26.667Z,7.93
2017-09-17T10:21:56.388Z,8.10
2017-09-17T10:24:26.132Z,6.70
2017-09-17T10:26:55.108Z,7.50
2017-09-17T10:29:24.878Z,6.70
2017-09-17T10:31:53.873Z,8.13
2017-09-17T10:34:22.911Z,8.77
2017-09-17T10:36:51.934Z,7.13
2017-09-17T10:39:21.798Z,5.87
2017-09-17T10:41:50.771Z,5.90
2017-09-17T10:44:21.111Z,7.57
2017-09-17T10:46:50.076Z,6.73
2017-09-17T10:49:19.890Z,7.47
2017-09-17T10:51:49.308Z,7.10
2017-09-17T10:54:18.384Z,7.70
2017-09-17T10:56:47.394Z,7.50
2017-09-17T10:59:18.641Z,8.27
2017-09-17T11:01:47.809Z,7.43
2017-09-17T11:04:16.797Z,7.17
2017-09-17T11:06:45.894Z,7.63
2017-09-17T11:09:17.869Z,7.57
2017-09-17T11:11:47.614Z,7.87
2017-09-17T11:14:18.099Z,7.17
2017-09-17T11:16:48.740Z,6.87
2017-09-17T11:19:19.438Z,7.57
2017-09-17T11:21:48.396Z,8.03
2017-09-17T11:24:17.450Z,7.27
2017-09-17T11:26:47.258Z,7.07
2017-09-17T11:29:16.641Z,8.60
2017-09-17T11:31:45.618Z,10.00
2017-09-17T11:34:15.480Z,9.00
2017-09-17T11:36:44.448Z,9.57
2017-09-17T11:39:14.286Z,8.90
2017-09-17T11:41:43.410Z,10.13
2017-09-17T11:44:12.446Z,10.47
2017-09-17T11:46:41.825Z,10.53
2017-09-17T11:49:10.839Z,10.07
2017-09-17T11:51:40.571Z,9.60
2017-09-17T11:54:10.326Z,9.63
2017-09-17T11:56:39.304Z,10.33
2017-09-17T11:59:08.741Z,10.50
2017-09-17T12:01:38.549Z,9.10
2017-09-17T12:04:07.589Z,9.63
2017-09-17T12:06:36.584Z,10.77
2017-09-17T12:09:05.562Z,10.07
2017-09-17T12:11:34.924Z,12.53
2017-09-17T12:14:03.912Z,11.13
2017-09-17T12:16:32.872Z,12.83
2017-09-17T12:19:01.891Z,10.90
2017-09-17T12:21:30.919Z,12.60
2017-09-17T12:24:00.682Z,12.93
2017-09-17T12:26:29.677Z,11.80
2017-09-17T12:28:59.082Z,11.27
2017-09-17T12:31:28.063Z,11.40
2017-09-17T12:33:57.074Z,11.40
2017-09-17T12:36:26.096Z,9.63
2017-09-17T12:38:55.260Z,8.90
2017-09-17T12:41:24.271Z,8.80
2017-09-17T12:43:53.242Z,9.43
2017-09-17T12:46:22.985Z,10.60
2017-09-17T12:48:52.816Z,10.20
2017-09-17T12:51:21.813Z,9.20
2017-09-17T12:53:50.787Z,9.23
2017-09-17T12:56:20.540Z,9.50
2017-09-17T12:58:49.516Z,7.93
2017-09-17T13:01:18.516Z,8.27
2017-09-17T13:03:47.472Z,8.00
2017-09-17T13:06:16.854Z,8.13
2017-09-17T13:08:45.810Z,10.20
2017-09-17T13:11:15.889Z,9.37
2017-09-17T13:13:44.948Z,9.77
2017-09-17T13:16:14.702Z,10.23
2017-09-17T13:18:43.708Z,9.07
2017-09-17T13:21:12.685Z,9.20
2017-09-17T13:23:41.649Z,9.20
2017-09-17T13:26:11.426Z,10.30
2017-09-17T13:28:40.401Z,9.20
2017-09-17T13:31:09.383Z,10.67
2017-09-17T13:33:38.367Z,10.23
2017-09-17T13:36:07.316Z,8.83
2017-09-17T13:38:36.280Z,8.80
2017-09-17T13:41:05.238Z,9.00
2017-09-17T13:43:35.001Z,9.20
2017-09-17T13:46:04.755Z,6.63
2017-09-17T13:48:33.745Z,6.10
2017-09-17T13:51:03.477Z,5.10
2017-09-17T13:53:32.929Z,6.57
2017-09-17T13:56:01.938Z,5.83
2017-09-17T13:58:31.657Z,5.50
2017-09-17T14:01:13.223Z,4.70
2017-09-17T14:03:42.192Z,4.27
2017-09-17T14:06:14.028Z,4.10
2017-09-17T14:08:43.018Z,4.10
2017-09-17T14:11:12.023Z,4.40
2017-09-17T14:13:41.000Z,3.60
2017-09-17T14:16:10.349Z,3.87
2017-09-17T14:18:39.329Z,4.20
2017-09-17T14:21:08.309Z,4.03
2017-09-17T14:23:38.368Z,3.90
2017-09-17T14:26:08.110Z,3.30
2017-09-17T14:28:37.090Z,3.77
2017-09-17T14:31:06.038Z,4.50
2017-09-17T14:33:35.052Z,5.00
2017-09-17T14:36:04.786Z,6.33
2017-09-17T14:38:34.566Z,6.20
2017-09-17T14:41:03.535Z,5.77
2017-09-17T14:43:32.613Z,5.33
2017-09-17T14:46:01.764Z,6.57
2017-09-17T14:48:30.720Z,5.20
2017-09-17T14:51:00.144Z,4.87
2017-09-17T14:53:29.510Z,4.17
2017-09-17T14:55:58.525Z,4.57
2017-09-17T14:58:27.564Z,3.60
2017-09-17T15:00:56.631Z,3.20
2017-09-17T15:03:26.158Z,2.60
2017-09-17T15:05:55.713Z,2.83
2017-09-17T15:08:24.680Z,2.93
2017-09-17T15:10:53.708Z,2.40
2017-09-17T15:13:23.441Z,2.10
2017-09-17T15:15:54.656Z,2.70
2017-09-17T15:18:23.710Z,2.80
2017-09-17T15:20:53.752Z,3.00
2017-09-17T15:23:23.542Z,3.20
2017-09-17T15:25:53.374Z,3.27
2017-09-17T15:28:22.853Z,3.50
2017-09-17T15:30:52.000Z,3.03
2017-09-17T15:33:21.802Z,3.50
2017-09-17T15:35:50.885Z,3.93
2017-09-17T15:38:19.893Z,4.67
2017-09-17T15:40:48.919Z,4.27
2017-09-17T15:43:18.730Z,4.40
2017-09-17T15:45:49.007Z,4.47
2017-09-17T15:48:17.938Z,4.77
2017-09-17T15:50:48.762Z,4.37
2017-09-17T15:53:18.584Z,4.00
2017-09-17T15:55:48.339Z,3.97
2017-09-17T15:58:18.329Z,4.17
2017-09-17T16:00:49.021Z,4.17
2017-09-17T16:03:19.226Z,4.40
2017-09-17T16:05:49.742Z,4.60
2017-09-17T16:08:19.484Z,5.17
2017-09-17T16:10:49.596Z,4.97
2017-09-17T16:13:20.206Z,4.50
2017-09-17T16:15:49.220Z,4.20
2017-09-17T16:18:18.562Z,3.80
2017-09-17T16:20:47.596Z,3.30
2017-09-17T16:23:16.575Z,3.37
2017-09-17T16:25:46.097Z,2.80
2017-09-17T16:28:15.093Z,2.83
2017-09-17T16:30:44.493Z,2.90
2017-09-17T16:33:13.465Z,3.13
2017-09-17T16:35:43.260Z,3.07
2017-09-17T16:38:12.301Z,2.97
2017-09-17T16:40:42.162Z,3.20
2017-09-17T16:43:11.601Z,3.00
2017-09-17T16:45:40.633Z,2.93
2017-09-17T16:48:10.446Z,2.87
2017-09-17T16:50:40.881Z,2.60
2017-09-17T16:53:11.726Z,3.33
2017-09-17T16:55:40.791Z,3.40
2017-09-17T16:58:10.582Z,3.63
2017-09-17T17:00:39.779Z,3.93
2017-09-17T17:03:09.571Z,4.40
2017-09-17T17:05:39.046Z,3.90
2017-09-17T17:08:08.088Z,4.27
2017-09-17T17:10:38.154Z,4.13
2017-09-17T17:13:08.792Z,3.87
2017-09-17T17:15:38.746Z,5.03
2017-09-17T17:18:08.184Z,4.80
2017-09-17T17:20:37.578Z,4.77
2017-09-17T17:23:07.741Z,4.60
2017-09-17T17:25:37.937Z,4.80
2017-09-17T17:28:07.041Z,5.03
2017-09-17T17:30:38.221Z,4.60
2017-09-17T17:33:07.613Z,5.47
2017-09-17T17:35:36.656Z,4.90
2017-09-17T17:38:05.724Z,5.10
2017-09-17T17:40:34.664Z,4.73
2017-09-17T17:43:03.650Z,4.80
2017-09-17T17:45:32.633Z,4.93
2017-09-17T17:48:01.616Z,5.07
2017-09-17T17:50:30.658Z,6.20
2017-09-17T17:52:59.637Z,4.93
2017-09-17T17:55:28.619Z,4.60
2017-09-17T17:57:58.397Z,5.07
2017-09-17T18:00:27.467Z,4.73
2017-09-17T18:02:56.444Z,4.73
2017-09-17T18:05:25.446Z,5.60
2017-09-17T18:07:55.269Z,4.43
2017-09-17T18:10:24.652Z,7.77
2017-09-17T18:12:53.695Z,6.27
2017-09-17T18:15:23.452Z,7.00
2017-09-17T18:17:52.476Z,7.93
2017-09-17T18:20:22.270Z,7.03
2017-09-17T18:22:52.032Z,6.57
2017-09-17T18:25:21.018Z,6.20
2017-09-17T18:27:50.031Z,6.13
2017-09-17T18:30:19.016Z,6.53
2017-09-17T18:32:47.980Z,5.40
2017-09-17T18:35:17.030Z,5.73
2017-09-17T18:37:46.755Z,5.57
2017-09-17T18:40:16.511Z,5.27
2017-09-17T18:42:45.547Z,4.60
2017-09-17T18:45:14.547Z,3.93
2017-09-17T18:47:43.598Z,4.10
2017-09-17T18:50:13.952Z,3.40
2017-09-17T18:52:42.984Z,2.60
2017-09-17T18:55:14.088Z,2.20
2017-09-17T18:57:43.084Z,2.40
2017-09-17T19:00:12.086Z,2.30
2017-09-17T19:02:41.877Z,2.20
2017-09-17T19:05:10.863Z,2.73
2017-09-17T19:07:40.602Z,2.97
2017-09-17T19:10:10.418Z,3.20
2017-09-17T19:12:40.183Z,3.00
2017-09-17T19:15:09.166Z,3.67
2017-09-17T19:17:38.233Z,4.00
2017-09-17T19:20:08.019Z,4.13
2017-09-17T19:22:37.791Z,4.10
2017-09-17T19:25:06.838Z,4.23
2017-09-17T19:27:35.992Z,4.10
2017-09-17T19:30:05.818Z,4.10
2017-09-17T19:32:34.783Z,5.00
2017-09-17T19:35:03.947Z,5.70
2017-09-17T19:37:33.136Z,5.97
2017-09-17T19:40:02.240Z,6.00
2017-09-17T19:42:31.224Z,6.87
2017-09-17T19:45:00.260Z,7.57
2017-09-17T19:47:29.245Z,8.50
2017-09-17T19:49:58.252Z,8.23
2017-09-17T19:52:27.258Z,6.70
2017-09-17T19:54:56.729Z,7.20
2017-09-17T19:57:25.705Z,7.97
2017-09-17T19:59:55.470Z,7.50
2017-09-17T20:02:24.439Z,8.20
2017-09-17T20:04:53.840Z,8.83
2017-09-17T20:07:24.304Z,7.80
2017-09-17T20:09:53.661Z,7.80
2017-09-17T20:12:22.672Z,7.17
2017-09-17T20:14:51.636Z,7.70
2017-09-17T20:17:21.449Z,7.40
2017-09-17T20:19:50.445Z,7.70
2017-09-17T20:22:19.848Z,6.53
2017-09-17T20:24:48.859Z,6.57
2017-09-17T20:27:17.829Z,6.77
2017-09-17T20:29:46.837Z,7.47
2017-09-17T20:32:15.807Z,8.27
2017-09-17T20:34:44.793Z,6.90
2017-09-17T20:37:13.754Z,6.27
2017-09-17T20:39:42.729Z,6.63
2017-09-17T20:42:12.470Z,6.83
2017-09-17T20:44:41.847Z,7.43
2017-09-17T20:47:11.595Z,7.10
2017-09-17T20:49:40.958Z,7.60
2017-09-17T20:52:10.760Z,7.70
2017-09-17T20:54:40.530Z,7.70
2017-09-17T20:57:09.547Z,7.70
2017-09-17T20:59:38.493Z,7.10
2017-09-17T21:02:07.451Z,7.03
2017-09-17T21:04:37.344Z,6.77
2017-09-17T21:07:07.092Z,6.80
2017-09-17T21:09:36.074Z,7.97
2017-09-17T21:12:05.797Z,7.67
2017-09-17T21:14:34.741Z,7.60
2017-09-17T21:17:03.696Z,8.57
2017-09-17T21:19:32.697Z,7.93
2017-09-17T21:22:01.646Z,8.47
2017-09-17T21:24:30.648Z,7.53
2017-09-17T21:26:59.590Z,8.00
2017-09-17T21:29:28.558Z,7.20
2017-09-17T21:31:57.521Z,7.37
2017-09-17T21:34:26.490Z,7.20
2017-09-17T21:36:56.397Z,7.30
2017-09-17T21:39:25.365Z,7.07
2017-09-17T21:41:54.740Z,7.40
2017-09-17T21:44:23.722Z,7.40
2017-09-17T21:46:52.668Z,7.60
2017-09-17T21:49:21.759Z,7.47
2017-09-17T21:51:50.721Z,6.90
2017-09-17T21:54:19.680Z,7.00
2017-09-17T21:56:48.658Z,7.20
2017-09-17T21:59:18.378Z,7.00
2017-09-17T22:01:47.348Z,7.37
2017-09-17T22:04:16.467Z,7.43
2017-09-17T22:06:45.424Z,6.60
2017-09-17T22:09:14.389Z,6.53
2017-09-17T22:11:43.392Z,6.93
2017-09-17T22:14:12.344Z,7.00
2017-09-17T22:16:42.089Z,7.27
2017-09-17T22:19:11.444Z,6.83
2017-09-17T22:21:40.418Z,8.87
2017-09-17T22:24:10.144Z,8.30
2017-09-17T22:26:39.133Z,8.83
2017-09-17T22:29:08.116Z,8.10
2017-09-17T22:31:37.116Z,9.07
2017-09-17T22:34:06.098Z,8.70
2017-09-17T22:36:35.814Z,8.20
2017-09-17T22:39:04.783Z,7.60
2017-09-17T22:41:34.506Z,8.90
2017-09-17T22:44:03.459Z,8.07
2017-09-17T22:46:32.833Z,8.87
2017-09-17T22:49:02.200Z,7.60
2017-09-17T22:51:31.232Z,7.37
2017-09-17T22:54:00.562Z,8.20
2017-09-17T22:56:29.540Z,7.60
2017-09-17T22:58:58.624Z,7.87
2017-09-17T23:01:27.576Z,8.57
2017-09-17T23:03:56.592Z,9.10
2017-09-17T23:06:25.559Z,8.97
2017-09-17T23:08:54.537Z,9.70
2017-09-17T23:11:24.352Z,9.20
2017-09-17T23:13:53.307Z,8.97
2017-09-17T23:16:22.347Z,9.30
2017-09-17T23:18:51.336Z,9.60
2017-09-17T23:21:21.089Z,9.60
2017-09-17T23:23:50.053Z,10.53
2017-09-17T23:26:19.049Z,10.80
2017-09-17T23:28:48.401Z,10.60
2017-09-17T23:31:17.384Z,10.47
2017-09-17T23:33:47.112Z,11.07
2017-09-17T23:36:16.862Z,10.13
2017-09-17T23:38:46.594Z,10.23
2017-09-17T23:41:15.972Z,10.17
2017-09-17T23:43:44.951Z,10.80
2017-09-17T23:46:13.998Z,11.27
2017-09-17T23:48:42.963Z,10.90
2017-09-17T23:51:12.980Z,10.23
2017-09-17T23:53:45.828Z,11.30
2017-09-17T23:56:15.617Z,10.87
2017-09-17T23:58:45.345Z,11.77
